Time;durP1;ratioP1;P1;durP2;ratioP2;P2;SDS_P1;SDS_P2;PMS_P1;PMS_P2;Temp;Humidity;BMP_temperature;BMP_pressure;BME280_temperature;BME280_humidity;BME280_pressure;Samples;Min_cycle;Max_cycle;Signal;HPM_P1;HPM_P2
2022/09/20 00:01:57;;;;;;;10.10;4.82;;;21.70;76.30;;;;;;4996202;28;20490;-72
2022/09/20 00:04:23;;;;;;;9.73;3.45;;;21.60;76.20;;;;;;4996108;28;20034;-69
2022/09/20 00:06:48;;;;;;;7.45;3.20;;;21.50;76.00;;;;;;4996087;28;20038;-70
2022/09/20 00:09:14;;;;;;;10.50;3.58;;;21.50;76.10;;;;;;4996051;28;20101;-72
2022/09/20 00:11:40;;;;;;;9.85;3.30;;;21.50;76.10;;;;;;4995938;28;20049;-74
2022/09/20 00:14:07;;;;;;;10.73;3.42;;;21.60;75.90;;;;;;4978409;28;20044;-74
2022/09/20 00:16:37;;;;;;;9.02;3.15;;;21.60;76.00;;;;;;4995922;28;20149;-74
2022/09/20 00:19:04;;;;;;;9.23;2.90;;;21.60;75.70;;;;;;4995790;28;20053;-71
2022/09/20 00:21:32;;;;;;;10.00;2.88;;;21.60;75.60;;;;;;4995544;28;20042;-74
2022/09/20 00:23:58;;;;;;;10.07;3.00;;;21.50;75.50;;;;;;4995788;28;20030;-72
2022/09/20 00:26:26;;;;;;;11.43;2.90;;;21.50;75.20;;;;;;4995607;28;20037;-72
2022/09/20 00:28:51;;;;;;;9.18;2.40;;;21.50;75.40;;;;;;4995664;28;20015;-71
2022/09/20 00:31:18;;;;;;;9.40;2.88;;;21.50;75.40;;;;;;4995518;28;20081;-72
2022/09/20 00:36:28;;;;;;;10.10;3.30;;;21.40;76.00;;;;;;4995993;28;20049;-72
2022/09/20 00:38:55;;;;;;;9.85;3.08;;;21.40;75.50;;;;;;4995548;28;20034;-73
2022/09/20 00:41:21;;;;;;;8.75;3.20;;;21.40;75.70;;;;;;4995681;28;20032;-72
2022/09/20 00:43:47;;;;;;;7.88;3.17;;;21.40;76.60;;;;;;4995680;28;20022;-73
2022/09/20 00:46:36;;;;;;;7.28;2.60;;;21.40;75.90;;;;;;4995682;28;20085;-72
2022/09/20 00:49:16;;;;;;;9.23;3.10;;;21.40;76.70;;;;;;4995698;28;20399;-73
2022/09/20 00:51:47;;;;;;;8.38;2.33;;;21.40;75.80;;;;;;4995627;28;20444;-71
2022/09/20 00:54:16;;;;;;;6.80;2.22;;;21.40;75.70;;;;;;4995185;28;20026;-73
2022/09/20 00:56:43;;;;;;;8.85;2.60;;;21.30;75.70;;;;;;4977681;28;20089;-71
2022/09/20 00:59:15;;;;;;;7.00;2.40;;;21.30;75.60;;;;;;4977536;28;20392;-70
2022/09/20 01:01:43;;;;;;;7.85;2.63;;;21.40;75.40;;;;;;4977426;28;20022;-70
2022/09/20 01:04:11;;;;;;;8.98;2.63;;;21.40;75.40;;;;;;4994922;28;20030;-71
2022/09/20 01:06:37;;;;;;;8.25;2.75;;;21.40;75.20;;;;;;4994797;28;20097;-71
2022/09/20 01:09:06;;;;;;;8.00;2.63;;;21.40;75.30;;;;;;4994899;28;20487;-71
2022/09/20 01:11:34;;;;;;;6.05;2.30;;;21.40;75.20;;;;;;4977166;28;20042;-71
2022/09/20 01:13:59;;;;;;;8.45;2.80;;;21.40;75.20;;;;;;4994665;28;20053;-70
2022/09/20 01:16:26;;;;;;;8.25;2.50;;;21.40;75.50;;;;;;4994884;28;20066;-71
2022/09/20 01:18:56;;;;;;;9.15;2.60;;;21.30;75.60;;;;;;4994722;28;20065;-71
2022/09/20 01:21:21;;;;;;;7.13;2.60;;;21.30;75.60;;;;;;4994610;28;20030;-70
2022/09/20 01:24:05;;;;;;;6.63;2.38;;;21.30;75.90;;;;;;4994548;28;20357;-71
2022/09/20 01:26:56;;;;;;;6.38;2.53;;;21.30;75.80;;;;;;4994597;28;20411;-73
2022/09/20 01:29:38;;;;;;;9.00;1.90;;;21.30;75.40;;;;;;4994368;28;20483;-73
2022/09/20 01:32:11;;;;;;;7.70;2.50;;;21.20;76.50;;;;;;4994314;28;20073;-71
2022/09/20 01:34:49;;;;;;;7.93;2.50;;;21.30;75.50;;;;;;4994298;28;20030;-72
2022/09/20 01:37:40;;;;;;;6.93;2.30;;;21.30;76.30;;;;;;4994282;28;20599;-72
2022/09/20 01:40:22;;;;;;;6.82;2.00;;;21.30;75.30;;;;;;4994406;28;20530;-73
2022/09/20 01:43:02;;;;;;;7.80;2.72;;;21.20;75.30;;;;;;4994315;28;20511;-72
2022/09/20 01:45:30;;;;;;;5.82;2.13;;;21.20;76.50;;;;;;4994180;28;20030;-73
2022/09/20 01:48:13;;;;;;;7.95;2.45;;;21.10;75.50;;;;;;4994240;28;20475;-73
2022/09/20 01:51:11;;;;;;;8.88;2.22;;;21.10;75.80;;;;;;4993948;28;20030;-72
2022/09/20 01:54:06;;;;;;;8.02;2.28;;;21.10;76.60;;;;;;4976466;28;20030;-74
2022/09/20 01:56:47;;;;;;;7.22;2.22;;;21.00;75.60;;;;;;4981019;28;20030;-73
2022/09/20 01:59:25;;;;;;;12.13;2.58;;;21.10;75.80;;;;;;4993635;28;20443;-72
2022/09/20 02:02:15;;;;;;;4.97;2.20;;;21.10;76.60;;;;;;4995569;28;20058;-73
2022/09/20 02:04:53;;;;;;;8.30;2.47;;;21.10;76.30;;;;;;5013408;28;20105;-73
2022/09/20 02:07:37;;;;;;;8.40;2.60;;;21.10;75.40;;;;;;5013529;28;20087;-72
2022/09/20 02:10:33;;;;;;;4.55;1.70;;;21.20;75.60;;;;;;5013285;28;20061;-74
2022/09/20 02:13:03;;;;;;;8.63;2.92;;;21.10;75.40;;;;;;5013372;28;20410;-72
2022/09/20 02:15:48;;;;;;;8.10;2.20;;;21.10;75.20;;;;;;4995769;28;20030;-73
2022/09/20 02:18:38;;;;;;;4.30;1.92;;;21.00;75.50;;;;;;5012860;28;20025;-72
2022/09/20 02:21:33;;;;;;;5.53;2.38;;;21.00;76.40;;;;;;5013100;28;20037;-72
2022/09/20 02:24:36;;;;;;;6.78;2.30;;;21.00;76.60;;;;;;4943095;28;20028;-70
2022/09/20 02:27:42;;;;;;;5.88;2.10;;;20.90;76.50;;;;;;5013184;28;20084;-71
2022/09/20 02:30:17;;;;;;;4.93;2.33;;;20.90;76.50;;;;;;4974339;28;20038;-73
2022/09/20 02:33:01;;;;;;;6.10;2.13;;;20.90;75.90;;;;;;5013011;28;20084;-72
2022/09/20 02:35:39;;;;;;;4.15;1.85;;;20.90;76.60;;;;;;5013029;28;20022;-72
2022/09/20 02:38:10;;;;;;;7.65;2.10;;;20.90;76.60;;;;;;5013235;28;20105;-71
2022/09/20 02:41:04;;;;;;;5.97;2.10;;;20.90;76.60;;;;;;5013005;28;20014;-74
2022/09/20 02:43:45;;;;;;;7.55;1.83;;;20.90;76.50;;;;;;5013143;28;20159;-74
2022/09/20 02:46:23;;;;;;;7.38;2.00;;;20.90;76.80;;;;;;5012875;28;20030;-71
2022/09/20 02:49:00;;;;;;;6.82;1.80;;;20.90;76.70;;;;;;5013002;28;20040;-72
2022/09/20 02:51:39;;;;;;;6.97;2.10;;;20.90;76.90;;;;;;5012765;28;20030;-72
2022/09/20 02:54:27;;;;;;;5.20;1.90;;;20.80;76.30;;;;;;5012999;28;20029;-72
2022/09/20 02:57:14;;;;;;;7.85;2.38;;;20.80;77.10;;;;;;5012847;28;20030;-72
2022/09/20 02:59:51;;;;;;;7.75;2.20;;;20.70;76.40;;;;;;5012895;28;20021;-71
2022/09/20 03:02:50;;;;;;;8.32;2.60;;;20.70;77.30;;;;;;4995280;28;20026;-72
2022/09/20 03:05:26;;;;;;;6.70;2.13;;;20.70;76.50;;;;;;5012489;28;20050;-71
2022/09/20 03:08:00;;;;;;;4.78;1.80;;;20.70;77.40;;;;;;4995170;28;20387;-71
2022/09/20 03:10:56;;;;;;;4.13;1.77;;;20.70;77.60;;;;;;5012759;28;20110;-71
2022/09/20 03:13:47;;;;;;;7.22;2.10;;;20.70;77.60;;;;;;5012786;28;20040;-71
2022/09/20 03:16:29;;;;;;;6.63;2.00;;;20.70;77.70;;;;;;5012608;28;20033;-72
2022/09/20 03:19:50;;;;;;;7.65;1.67;;;20.70;78.00;;;;;;5012567;28;20093;-70
2022/09/20 03:22:35;;;;;;;8.52;1.90;;;20.70;78.00;;;;;;4932814;29;20055;-71
2022/09/20 03:25:15;;;;;;;5.03;1.77;;;20.70;78.20;;;;;;4932908;29;20485;-71
2022/09/20 03:28:02;;;;;;;6.35;1.70;;;20.70;78.50;;;;;;4988076;28;20052;-71
2022/09/20 03:30:55;;;;;;;5.00;1.63;;;20.70;78.60;;;;;;5014393;28;20105;-72
2022/09/20 03:34:03;;;;;;;7.85;2.47;;;20.70;78.70;;;;;;5016152;28;20041;-71
2022/09/20 03:36:55;;;;;;;5.53;2.15;;;20.60;79.30;;;;;;5015694;28;20062;-71
2022/09/20 03:39:26;;;;;;;6.57;2.10;;;20.60;79.60;;;;;;5016106;28;20121;-72
2022/09/20 03:42:10;;;;;;;5.93;1.77;;;20.60;80.00;;;;;;5016363;28;20374;-71
2022/09/20 03:45:00;;;;;;;6.60;2.40;;;20.60;80.00;;;;;;5016208;28;20033;-70
2022/09/20 03:47:47;;;;;;;7.63;2.45;;;20.60;80.30;;;;;;5016020;28;20037;-71
2022/09/20 03:50:31;;;;;;;6.00;2.47;;;20.60;79.20;;;;;;5015961;28;20479;-71
2022/09/20 03:53:15;;;;;;;;;;;20.60;80.00;;;;;;5016195;28;20075;-72
2022/09/20 03:56:19;;;;;;;9.77;2.38;;;20.60;80.10;;;;;;5015711;28;20282;-71
2022/09/20 03:59:20;;;;;;;7.05;2.00;;;20.60;78.70;;;;;;4958841;28;20030;-71
2022/09/20 04:02:19;;;;;;;7.13;2.00;;;20.50;79.70;;;;;;5011737;28;20061;-72
2022/09/20 04:05:16;;;;;;;6.25;2.00;;;20.50;79.50;;;;;;5015610;28;20132;-71
2022/09/20 04:08:06;;;;;;;7.80;2.20;;;20.50;79.60;;;;;;5015638;28;20010;-72
2022/09/20 04:11:04;;;;;;;7.68;1.88;;;20.50;79.70;;;;;;5015632;28;20152;-72
2022/09/20 04:13:39;;;;;;;4.13;1.90;;;20.40;79.50;;;;;;5016835;28;20037;-72
2022/09/20 04:16:39;;;;;;;7.32;2.00;;;20.40;79.00;;;;;;5017195;28;20510;-72
2022/09/20 04:19:27;;;;;;;6.68;1.83;;;20.40;80.30;;;;;;5015779;28;20100;-72
2022/09/20 04:22:00;;;;;;;6.45;2.10;;;20.20;80.30;;;;;;5015808;28;20045;-74
2022/09/20 04:24:39;;;;;;;8.73;2.20;;;20.20;79.90;;;;;;5015348;28;20022;-70
2022/09/20 04:27:10;;;;;;;8.18;2.45;;;20.30;80.30;;;;;;5015498;28;20026;-72
2022/09/20 04:29:58;;;;;;;6.10;2.55;;;20.30;80.70;;;;;;5015434;28;20087;-73
2022/09/20 04:32:40;;;;;;;8.35;2.92;;;20.20;81.90;;;;;;5015246;28;20095;-71
2022/09/20 04:38:17;;;;;;;6.97;2.65;;;20.20;82.60;;;;;;5015417;28;20057;-72
2022/09/20 04:41:08;;;;;;;6.97;2.70;;;20.20;82.10;;;;;;5014690;28;20022;-71
2022/09/20 04:44:12;;;;;;;5.95;2.78;;;20.10;83.10;;;;;;5015069;28;20014;-71
2022/09/20 04:47:08;;;;;;;9.85;3.03;;;20.10;83.50;;;;;;4991594;28;20046;-73
2022/09/20 04:49:58;;;;;;;11.80;3.92;;;20.10;83.40;;;;;;5000026;28;20044;-72
2022/09/20 04:53:04;;;;;;;9.07;2.78;;;20.20;83.50;;;;;;5014828;28;20044;-71
2022/09/20 04:55:52;;;;;;;8.88;3.25;;;20.20;83.30;;;;;;5014733;28;20116;-72
2022/09/20 04:58:31;;;;;;;8.00;2.88;;;20.20;83.30;;;;;;5014699;28;20068;-72
2022/09/20 05:01:18;;;;;;;8.07;2.80;;;20.20;82.90;;;;;;5015268;28;20033;-72
2022/09/20 05:04:21;;;;;;;12.95;2.90;;;20.10;83.60;;;;;;5014740;28;20124;-71
2022/09/20 05:07:24;;;;;;;6.30;2.67;;;20.20;83.60;;;;;;5014338;28;20046;-74
2022/09/20 05:10:16;;;;;;;7.68;2.78;;;20.20;83.70;;;;;;5014432;28;20026;-72
2022/09/20 05:13:04;;;;;;;8.75;3.38;;;20.20;83.50;;;;;;5014476;28;20038;-71
2022/09/20 05:15:48;;;;;;;5.15;2.50;;;20.10;83.60;;;;;;5014214;28;20490;-73
2022/09/20 05:18:26;;;;;;;7.65;2.97;;;20.10;83.80;;;;;;5014302;28;20427;-73
2022/09/20 05:21:07;;;;;;;10.02;2.95;;;20.10;83.30;;;;;;5014274;28;20034;-73
2022/09/20 05:23:45;;;;;;;7.15;3.20;;;20.10;83.10;;;;;;5013911;28;20041;-74
2022/09/20 05:26:16;;;;;;;8.40;3.10;;;20.10;83.10;;;;;;4994449;28;20101;-71
2022/09/20 05:28:52;;;;;;;11.07;3.22;;;20.10;83.10;;;;;;4994544;28;20034;-73
2022/09/20 05:31:53;;;;;;;7.22;2.80;;;20.10;83.00;;;;;;4994332;28;20101;-71
2022/09/20 05:34:41;;;;;;;8.10;2.95;;;20.20;83.00;;;;;;4880812;29;20037;-72
2022/09/20 05:37:42;;;;;;;7.75;2.92;;;20.20;83.60;;;;;;4987697;28;20034;-73
2022/09/20 05:40:42;;;;;;;9.25;3.35;;;20.20;83.50;;;;;;4994164;28;20018;-72
2022/09/20 05:43:15;;;;;;;13.70;3.20;;;20.20;83.60;;;;;;4994296;28;20018;-72
2022/09/20 05:46:01;;;;;;;11.60;3.97;;;20.30;82.30;;;;;;4994247;28;20057;-73
2022/09/20 05:48:54;;;;;;;15.73;3.55;;;20.30;83.20;;;;;;4994077;28;20022;-74
2022/09/20 05:51:41;;;;;;;6.50;2.83;;;20.30;83.50;;;;;;4994573;28;20026;-67
2022/09/20 05:54:58;;;;;;;8.77;3.05;;;20.30;83.10;;;;;;4979114;28;20034;-68
2022/09/20 05:58:01;;;;;;;7.55;3.25;;;20.40;83.10;;;;;;4941767;28;20041;-69
2022/09/20 06:00:44;;;;;;;8.38;3.47;;;20.50;82.90;;;;;;4997087;28;20086;-76
2022/09/20 06:03:54;;;;;;;7.32;3.40;;;20.60;82.60;;;;;;4994325;28;20490;-77
2022/09/20 06:06:39;;;;;;;9.75;3.60;;;20.70;82.20;;;;;;5003209;28;20177;-67
2022/09/20 06:09:11;;;;;;;15.27;3.88;;;20.90;81.50;;;;;;5009585;28;20034;-64
2022/09/20 06:12:05;;;;;;;12.18;3.45;;;21.10;81.20;;;;;;5013461;28;20422;-65
2022/09/20 06:15:10;;;;;;;7.53;3.50;;;21.20;80.60;;;;;;5009613;28;20029;-66
2022/09/20 06:18:20;;;;;;;7.13;3.15;;;21.30;80.20;;;;;;4979637;28;20073;-65
2022/09/20 06:21:27;;;;;;;12.70;3.35;;;21.40;79.90;;;;;;4940092;29;20063;-65
2022/09/20 06:23:59;;;;;;;9.00;3.88;;;21.60;79.40;;;;;;4933646;29;20059;-66
2022/09/20 06:26:30;;;;;;;15.60;3.22;;;21.70;78.30;;;;;;4985733;28;20035;-65
2022/09/20 06:29:18;;;;;;;13.85;3.30;;;21.70;77.90;;;;;;4993867;28;20031;-66
2022/09/20 06:31:48;;;;;;;10.75;3.08;;;21.90;77.40;;;;;;4993649;28;20122;-63
2022/09/20 06:34:14;;;;;;;10.52;2.90;;;22.10;76.90;;;;;;4993803;28;20046;-67
2022/09/20 06:42:37;;;;;;;10.65;3.55;;;22.30;75.90;;;;;;4994553;28;20053;-75
2022/09/20 06:45:03;;;;;;;13.15;2.97;;;22.40;75.80;;;;;;4994042;28;20064;-67
2022/09/20 06:47:37;;;;;;;10.05;3.10;;;22.40;74.90;;;;;;4994268;28;20030;-71
2022/09/20 06:50:05;;;;;;;10.48;2.95;;;22.50;75.00;;;;;;4976661;28;20039;-71
2022/09/20 06:52:31;;;;;;;8.02;3.10;;;22.60;74.80;;;;;;4981677;28;20125;-69
2022/09/20 06:54:57;;;;;;;11.90;2.88;;;22.70;74.50;;;;;;4993741;28;20037;-66
2022/09/20 06:57:35;;;;;;;14.98;3.30;;;22.80;74.40;;;;;;4994152;28;20023;-65
2022/09/20 07:00:01;;;;;;;11.95;4.28;;;22.90;73.40;;;;;;4961211;28;20101;-69
2022/09/20 07:02:27;;;;;;;11.02;3.65;;;22.90;73.10;;;;;;4994421;28;20034;-67
2022/09/20 07:04:54;;;;;;;10.60;3.03;;;22.90;73.00;;;;;;4996228;28;20373;-84
2022/09/20 07:07:20;;;;;;;12.18;3.10;;;23.00;72.80;;;;;;4997783;28;20085;-70
2022/09/20 07:09:46;;;;;;;10.60;3.05;;;23.00;72.40;;;;;;4998741;28;20050;-65
2022/09/20 07:12:13;;;;;;;10.77;3.28;;;23.10;72.20;;;;;;4981083;28;20084;-84
2022/09/20 07:14:41;;;;;;;16.95;3.67;;;23.20;72.10;;;;;;4985080;28;20023;-67
2022/09/20 07:17:07;;;;;;;12.02;3.47;;;23.30;71.20;;;;;;4998678;28;20030;-81
2022/09/20 07:19:35;;;;;;;11.80;3.47;;;23.40;71.80;;;;;;4997379;28;20053;-69
2022/09/20 07:22:01;;;;;;;15.25;3.22;;;23.40;71.20;;;;;;4997433;28;20122;-66
2022/09/20 07:24:31;;;;;;;17.48;3.58;;;23.40;71.00;;;;;;4998420;28;20058;-72
2022/09/20 07:26:59;;;;;;;15.07;3.40;;;23.40;70.60;;;;;;4997609;28;20030;-67
2022/09/20 07:29:26;;;;;;;9.30;3.20;;;23.50;70.80;;;;;;4979924;28;20034;-65
2022/09/20 07:31:52;;;;;;;8.77;3.20;;;23.50;70.10;;;;;;4998535;28;20515;-71
2022/09/20 07:34:19;;;;;;;15.93;3.42;;;23.50;70.20;;;;;;4998110;28;20018;-66
2022/09/20 07:36:49;;;;;;;9.93;3.58;;;23.60;69.50;;;;;;5001877;28;20030;-72
2022/09/20 07:39:15;;;;;;;12.50;4.20;;;23.70;68.80;;;;;;5001006;28;20054;-74
2022/09/20 07:41:44;;;;;;;14.32;3.60;;;23.90;69.80;;;;;;5001002;28;20102;-68
2022/09/20 07:44:26;;;;;;;12.15;3.15;;;23.90;69.10;;;;;;4999955;28;20018;-76
2022/09/20 07:46:59;;;;;;;9.40;3.08;;;23.90;67.80;;;;;;4999728;28;20092;-74
2022/09/20 07:49:29;;;;;;;11.88;3.45;;;24.00;67.60;;;;;;4998983;28;20030;-75
2022/09/20 07:51:55;;;;;;;8.32;3.45;;;24.00;68.40;;;;;;4997889;28;20039;-73
2022/09/20 07:54:22;;;;;;;9.88;3.85;;;24.00;68.50;;;;;;4997273;28;20524;-77
2022/09/20 07:56:48;;;;;;;8.23;3.00;;;24.00;67.40;;;;;;4997284;28;20061;-69
2022/09/20 07:59:14;;;;;;;7.35;2.78;;;24.00;67.10;;;;;;4996793;28;20019;-78
2022/09/20 08:01:41;;;;;;;11.70;3.38;;;23.90;67.30;;;;;;4996441;28;20022;-68
2022/09/20 08:04:08;;;;;;;13.68;3.63;;;23.90;67.50;;;;;;4996964;28;20105;-71
2022/09/20 08:06:39;;;;;;;10.32;2.80;;;23.90;67.90;;;;;;4997514;28;20106;-78
2022/09/20 08:09:06;;;;;;;7.68;2.60;;;23.90;67.70;;;;;;4997461;28;20101;-78
2022/09/20 08:11:34;;;;;;;10.10;2.67;;;23.90;67.70;;;;;;4980234;28;20549;-74
2022/09/20 08:14:07;;;;;;;12.25;2.15;;;23.80;67.10;;;;;;4996544;28;20080;-78
2022/09/20 08:16:38;;;;;;;9.55;3.00;;;23.90;66.50;;;;;;4996360;28;20447;-72
2022/09/20 08:19:13;;;;;;;11.88;3.00;;;23.80;67.50;;;;;;4997091;28;20054;-75
2022/09/20 08:21:39;;;;;;;8.30;2.72;;;23.90;67.20;;;;;;4997135;28;20030;-76
2022/09/20 08:24:05;;;;;;;11.73;2.50;;;23.90;66.90;;;;;;4996789;28;20380;-82
2022/09/20 08:26:33;;;;;;;13.77;3.00;;;23.90;66.80;;;;;;4996709;28;20026;-74
2022/09/20 08:29:00;;;;;;;14.02;3.00;;;23.90;66.50;;;;;;4995986;28;20027;-80
2022/09/20 08:31:33;;;;;;;18.25;3.00;;;23.90;66.30;;;;;;4996449;28;20069;-78
2022/09/20 08:34:02;;;;;;;11.40;4.50;;;23.90;65.60;;;;;;4992732;28;20043;-71
2022/09/20 08:36:29;;;;;;;8.57;2.80;;;24.00;66.30;;;;;;4996484;28;20031;-77
2022/09/20 08:38:57;;;;;;;11.52;3.70;;;24.00;66.30;;;;;;4996437;28;20046;-77
2022/09/20 08:41:30;;;;;;;7.35;2.50;;;24.00;65.90;;;;;;4998804;28;20018;-79
2022/09/20 08:44:31;;;;;;;7.60;2.92;;;24.00;66.40;;;;;;4982137;28;20038;-72
2022/09/20 08:47:23;;;;;;;10.52;3.03;;;24.10;65.10;;;;;;4988659;28;20484;-77
2022/09/20 08:49:52;;;;;;;9.57;2.60;;;24.10;64.80;;;;;;4983195;28;20027;-74
2022/09/20 08:52:24;;;;;;;14.43;3.50;;;24.20;65.80;;;;;;5003856;28;20036;-71
2022/09/20 08:54:51;;;;;;;11.02;3.25;;;24.20;65.80;;;;;;5007877;28;20027;-78
2022/09/20 08:57:22;;;;;;;9.75;2.45;;;24.30;64.50;;;;;;4998098;28;20439;-68
2022/09/20 08:59:49;;;;;;;15.23;3.70;;;24.30;64.60;;;;;;5000755;28;20022;-70
2022/09/20 09:02:17;;;;;;;13.48;2.50;;;24.30;65.10;;;;;;5000079;28;20026;-66
2022/09/20 09:04:44;;;;;;;15.20;2.85;;;24.30;65.20;;;;;;4998648;28;20035;-70
2022/09/20 09:07:14;;;;;;;9.32;2.03;;;24.30;65.30;;;;;;4996767;28;20101;-68
2022/09/20 09:09:42;;;;;;;7.10;2.47;;;24.40;64.70;;;;;;4996204;28;20190;-66
2022/09/20 09:12:24;;;;;;;7.05;2.17;;;24.40;65.00;;;;;;4995910;28;20037;-69
2022/09/20 09:14:58;;;;;;;6.78;1.83;;;24.50;64.00;;;;;;4995146;28;20035;-66
2022/09/20 09:17:24;;;;;;;;;;;24.50;64.30;;;;;;4995810;28;20433;-80
2022/09/20 09:19:58;;;;;;;8.15;3.00;;;24.50;64.10;;;;;;4995372;28;19906;-72
2022/09/20 09:22:29;;;;;;;9.20;2.67;;;24.60;64.20;;;;;;4995581;28;20038;-78
2022/09/20 09:25:15;;;;;;;6.10;2.47;;;24.60;63.60;;;;;;4995369;28;20085;-80
2022/09/20 09:27:56;;;;;;;5.28;1.92;;;24.70;62.50;;;;;;4995218;28;20352;-74
2022/09/20 09:30:29;;;;;;;6.65;2.22;;;24.60;62.60;;;;;;4994943;28;20562;-73
2022/09/20 09:33:13;;;;;;;9.73;3.08;;;24.70;62.90;;;;;;4994237;28;20088;-70
2022/09/20 09:35:39;;;;;;;8.02;3.10;;;24.70;62.60;;;;;;4994802;28;20027;-77
2022/09/20 09:38:14;;;;;;;10.82;3.80;;;24.80;62.80;;;;;;4995113;28;20014;-76
2022/09/20 09:40:49;;;;;;;8.32;2.90;;;24.90;62.50;;;;;;4995382;28;20431;-72
2022/09/20 09:43:22;;;;;;;7.38;2.30;;;25.00;62.10;;;;;;4995368;28;20053;-77
2022/09/20 09:45:49;;;;;;;7.60;2.45;;;25.10;61.80;;;;;;4994858;28;20084;-69
2022/09/20 09:48:22;;;;;;;7.68;2.70;;;25.30;61.90;;;;;;4994597;28;20080;-67
2022/09/20 09:50:48;;;;;;;5.82;2.17;;;25.40;61.80;;;;;;4994700;28;20032;-70
2022/09/20 09:53:35;;;;;;;9.75;2.60;;;25.50;61.40;;;;;;4994824;28;20034;-71
2022/09/20 09:56:27;;;;;;;8.93;2.60;;;25.50;60.80;;;;;;4992050;28;20081;-67
2022/09/20 09:59:09;;;;;;;7.55;2.60;;;25.60;60.40;;;;;;4994502;28;20033;-73
2022/09/20 10:01:50;;;;;;;5.68;2.15;;;25.60;60.50;;;;;;4994397;28;20377;-79
2022/09/20 10:04:41;;;;;;;7.80;2.75;;;25.70;60.40;;;;;;4994086;28;20037;-77
2022/09/20 10:07:18;;;;;;;5.90;2.08;;;25.70;60.40;;;;;;4979408;28;20100;-68
2022/09/20 10:10:06;;;;;;;5.07;1.70;;;25.80;60.00;;;;;;4994520;28;20034;-69
2022/09/20 10:12:50;;;;;;;8.45;2.95;;;25.90;59.50;;;;;;4994568;28;20405;-75
2022/09/20 10:15:37;;;;;;;7.53;2.70;;;26.00;58.60;;;;;;4994299;28;20030;-73
2022/09/20 10:18:23;;;;;;;9.32;2.30;;;26.10;58.70;;;;;;4994171;28;20053;-76
2022/09/20 10:21:00;;;;;;;7.22;2.70;;;26.10;58.70;;;;;;4993841;28;20042;-69
2022/09/20 10:23:46;;;;;;;5.82;2.08;;;26.10;58.40;;;;;;4994077;28;20033;-70
2022/09/20 10:26:31;;;;;;;10.35;2.90;;;26.20;57.90;;;;;;4994143;28;20100;-68
2022/09/20 10:29:14;;;;;;;9.75;2.60;;;26.20;57.30;;;;;;4994454;28;20030;-70
2022/09/20 10:32:12;;;;;;;8.90;2.67;;;26.40;56.10;;;;;;4976310;28;20070;-75
2022/09/20 10:35:05;;;;;;;10.65;2.63;;;26.50;55.20;;;;;;4993798;28;20489;-69
2022/09/20 10:37:37;;;;;;;5.50;2.10;;;26.60;55.30;;;;;;4991393;28;20030;-69
2022/09/20 10:40:22;;;;;;;7.03;2.67;;;26.70;54.80;;;;;;4993265;28;20030;-80
2022/09/20 10:43:15;;;;;;;7.55;2.40;;;26.80;53.60;;;;;;4994094;28;20539;-72
2022/09/20 10:45:55;;;;;;;9.20;2.60;;;26.90;53.20;;;;;;4994376;28;20375;-69
2022/09/20 10:48:24;;;;;;;9.02;2.53;;;26.90;52.90;;;;;;4994675;28;20026;-70
2022/09/20 10:51:13;;;;;;;9.00;2.50;;;26.90;53.40;;;;;;4994845;28;20472;-72
2022/09/20 10:54:14;;;;;;;9.07;2.83;;;26.90;53.90;;;;;;4976461;28;20057;-71
2022/09/20 10:56:48;;;;;;;10.25;2.40;;;26.80;54.10;;;;;;4994676;28;20031;-69
2022/09/20 10:59:35;;;;;;;7.28;2.38;;;26.70;54.00;;;;;;4994092;28;20026;-68
2022/09/20 11:02:20;;;;;;;6.80;2.78;;;26.70;53.70;;;;;;4995122;28;20026;-67
2022/09/20 11:04:55;;;;;;;6.55;2.63;;;26.70;53.80;;;;;;4995567;28;20452;-72
2022/09/20 11:07:27;;;;;;;6.95;2.50;;;26.70;53.60;;;;;;4995771;28;20038;-67
2022/09/20 11:10:02;;;;;;;6.25;2.60;;;26.60;53.60;;;;;;4995384;28;20038;-75
2022/09/20 11:12:57;;;;;;;9.73;2.50;;;26.70;54.90;;;;;;4994591;28;20039;-77
2022/09/20 11:15:34;;;;;;;9.00;2.65;;;26.70;53.50;;;;;;4994380;28;20464;-73
2022/09/20 11:18:13;;;;;;;6.65;2.25;;;26.90;53.00;;;;;;4995348;28;20503;-73
2022/09/20 11:21:06;;;;;;;7.28;2.83;;;27.00;52.40;;;;;;4980004;28;20022;-71
2022/09/20 11:24:04;;;;;;;7.10;2.72;;;27.10;53.20;;;;;;4986983;28;20031;-73
2022/09/20 11:26:41;;;;;;;6.95;2.00;;;27.10;51.90;;;;;;4995389;28;20057;-72
2022/09/20 11:29:39;;;;;;;6.38;2.20;;;27.20;50.30;;;;;;4994827;28;20105;-71
2022/09/20 11:32:15;;;;;;;10.73;2.40;;;27.30;50.20;;;;;;4952978;28;20031;-71
2022/09/20 11:34:53;;;;;;;7.97;2.28;;;27.40;51.60;;;;;;4976913;28;20038;-72
2022/09/20 11:37:21;;;;;;;7.65;2.50;;;27.50;49.50;;;;;;4995650;28;20050;-67
2022/09/20 11:39:53;;;;;;;9.30;2.13;;;27.60;51.20;;;;;;4994831;28;20022;-70
2022/09/20 11:42:32;;;;;;;6.57;2.45;;;27.70;50.60;;;;;;4995673;28;20038;-74
2022/09/20 11:44:58;;;;;;;7.63;2.45;;;27.90;50.20;;;;;;4994402;28;20027;-68
2022/09/20 11:47:48;;;;;;;7.38;2.65;;;28.10;50.00;;;;;;4994511;28;20026;-67
2022/09/20 11:50:38;;;;;;;12.45;2.65;;;28.20;47.70;;;;;;4994448;28;20547;-71
2022/09/20 11:53:24;;;;;;;8.73;2.08;;;28.30;47.40;;;;;;4997216;28;20062;-66
2022/09/20 11:56:02;;;;;;;7.22;2.60;;;28.20;49.20;;;;;;4997752;28;20025;-66
2022/09/20 11:58:28;;;;;;;8.23;2.80;;;28.10;47.90;;;;;;4996710;28;20467;-69
2022/09/20 12:00:59;;;;;;;5.40;2.30;;;28.00;49.30;;;;;;4996550;28;20018;-67
2022/09/20 12:03:49;;;;;;;8.25;2.40;;;27.90;49.60;;;;;;4979369;28;20041;-66
2022/09/20 12:06:35;;;;;;;7.38;2.65;;;27.80;49.50;;;;;;4978152;28;20050;-71
2022/09/20 12:09:06;;;;;;;7.93;2.60;;;27.70;48.20;;;;;;4996416;28;20459;-77
2022/09/20 12:11:34;;;;;;;10.65;3.25;;;27.70;50.10;;;;;;4996482;28;20026;-72
2022/09/20 12:14:17;;;;;;;7.10;2.60;;;27.70;50.20;;;;;;4996130;28;20431;-76
2022/09/20 12:16:46;;;;;;;10.70;2.67;;;27.70;50.20;;;;;;4996357;28;20038;-79
2022/09/20 12:19:35;;;;;;;19.48;3.00;;;27.70;50.20;;;;;;4996307;28;20030;-80
2022/09/20 12:22:02;;;;;;;9.48;2.90;;;27.80;48.50;;;;;;4996114;28;20042;-75
2022/09/20 12:24:28;;;;;;;13.93;2.78;;;27.90;50.10;;;;;;4996142;28;20030;-74
2022/09/20 12:26:58;;;;;;;10.98;2.60;;;28.00;50.30;;;;;;4996200;28;20375;-76
2022/09/20 12:29:28;;;;;;;12.40;3.20;;;28.10;50.40;;;;;;4996178;28;20030;-78
2022/09/20 12:31:58;;;;;;;9.80;2.75;;;28.10;50.50;;;;;;4995798;28;20041;-70
2022/09/20 12:34:24;;;;;;;9.82;2.22;;;28.10;50.60;;;;;;4995856;28;20018;-75
2022/09/20 12:36:54;;;;;;;10.10;2.75;;;28.10;50.50;;;;;;4995719;28;20030;-74
2022/09/20 12:39:28;;;;;;;6.93;2.70;;;28.10;49.60;;;;;;4996080;28;20030;-79
2022/09/20 12:41:56;;;;;;;9.65;2.70;;;28.10;51.50;;;;;;4978298;28;20545;-71
2022/09/20 12:44:30;;;;;;;11.82;2.60;;;28.00;51.80;;;;;;4995321;28;20496;-78
2022/09/20 12:47:08;;;;;;;10.90;2.80;;;28.00;51.00;;;;;;4996113;28;20477;-75
2022/09/20 12:52:49;;;;;;;8.05;2.50;;;27.90;53.00;;;;;;4974288;28;20035;-77
2022/09/20 12:55:55;;;;;;;9.30;2.65;;;27.80;52.50;;;;;;4995078;28;20061;-74
2022/09/20 12:59:04;;;;;;;10.32;2.30;;;27.70;52.90;;;;;;4995653;28;20034;-73
2022/09/20 13:01:32;;;;;;;7.88;2.30;;;27.60;53.50;;;;;;4964640;28;20046;-79
2022/09/20 13:04:36;;;;;;;7.80;2.22;;;27.60;54.40;;;;;;4995202;28;20030;-77
2022/09/20 13:07:41;;;;;;;12.90;2.45;;;27.70;54.10;;;;;;4995335;28;20096;-79
2022/09/20 13:10:29;;;;;;;9.07;2.15;;;27.70;54.60;;;;;;4996106;28;20032;-78
2022/09/20 13:13:26;;;;;;;11.85;2.33;;;27.60;55.80;;;;;;4995967;28;20534;-81
2022/09/20 13:15:53;;;;;;;7.50;2.63;;;27.50;56.00;;;;;;4972008;28;20027;-79
2022/09/20 13:18:21;;;;;;;7.15;2.03;;;27.50;57.00;;;;;;4997338;28;20133;-78
2022/09/20 13:20:47;;;;;;;8.52;2.50;;;27.40;57.10;;;;;;4997656;28;20031;-75
2022/09/20 13:23:20;;;;;;;7.32;2.25;;;27.40;57.70;;;;;;4995651;28;20095;-80
2022/09/20 13:25:46;;;;;;;;;;;27.30;58.20;;;;;;4994814;28;20038;-73
2022/09/20 13:28:53;;;;;;;7.82;2.25;;;27.20;58.80;;;;;;4994727;28;19912;-81
2022/09/20 13:31:27;;;;;;;7.75;2.40;;;27.20;58.40;;;;;;4934924;29;20075;-77
2022/09/20 13:33:54;;;;;;;7.75;2.40;;;27.20;58.90;;;;;;4969660;28;20184;-78
2022/09/20 13:36:30;;;;;;;8.57;2.35;;;27.40;58.80;;;;;;4995541;28;20023;-80
2022/09/20 13:38:57;;;;;;;6.30;2.08;;;27.70;58.20;;;;;;4977125;28;20038;-83
2022/09/20 13:41:26;;;;;;;6.93;2.15;;;27.90;58.30;;;;;;4994877;28;20045;-80
2022/09/20 13:43:54;;;;;;;7.68;2.28;;;28.00;57.10;;;;;;4995020;28;20473;-79
2022/09/20 13:46:29;;;;;;;8.43;2.40;;;28.10;56.20;;;;;;4976994;28;20026;-80
2022/09/20 13:49:16;;;;;;;5.68;2.40;;;28.30;55.40;;;;;;4994737;28;20442;-75
2022/09/20 13:51:42;;;;;;;6.25;2.13;;;28.50;54.50;;;;;;4994655;28;20034;-82
2022/09/20 13:54:20;;;;;;;6.57;2.60;;;28.50;54.70;;;;;;4994552;28;20353;-81
2022/09/20 13:56:48;;;;;;;7.32;2.20;;;28.40;54.70;;;;;;4994409;28;20117;-81
2022/09/20 13:59:18;;;;;;;9.02;2.67;;;28.30;55.00;;;;;;4994184;28;20426;-77
2022/09/20 14:01:50;;;;;;;8.77;2.20;;;28.20;55.10;;;;;;4976979;28;20077;-79